createdAt,value
2023-02-06T00:01:04.006Z,102356.84
2023-02-06T00:04:06.621Z,102327.78
2023-02-06T00:07:08.970Z,102381.63
2023-02-06T00:10:11.555Z,102348.59
2023-02-06T00:13:13.867Z,102388.31
2023-02-06T00:16:29.672Z,102390.62
2023-02-06T00:19:31.974Z,102361.91
2023-02-06T00:22:35.222Z,102401.44
2023-02-06T00:25:37.720Z,102410.16
2023-02-06T00:28:41.054Z,102381.69
2023-02-06T00:31:43.457Z,102412.25
2023-02-06T00:34:46.081Z,102431.00
2023-02-06T00:37:48.814Z,102427.25
2023-02-06T00:40:51.524Z,102430.75
2023-02-06T00:43:53.822Z,102396.84
2023-02-06T00:46:59.222Z,102420.59
2023-02-06T00:50:04.182Z,102396.84
2023-02-06T00:53:06.789Z,102387.50
2023-02-06T00:56:09.099Z,102421.84
2023-02-06T00:59:11.706Z,102402.69
2023-02-06T01:02:14.825Z,102370.44
2023-02-06T01:05:17.790Z,102392.09
2023-02-06T01:08:20.184Z,102404.78
2023-02-06T01:11:25.285Z,102373.94
2023-02-06T01:14:28.405Z,102372.72
2023-02-06T01:17:33.111Z,102418.28
2023-02-06T01:20:35.717Z,102414.75
2023-02-06T01:23:39.631Z,102417.66
2023-02-06T01:26:41.956Z,102412.69
2023-02-06T01:29:44.574Z,102418.47
2023-02-06T01:32:46.955Z,102413.50
2023-02-06T01:35:56.915Z,102412.69
2023-02-06T01:38:59.254Z,102396.22
2023-02-06T01:42:02.393Z,102395.56
2023-02-06T01:45:26.111Z,102423.88
2023-02-06T01:48:51.025Z,102415.12
2023-02-06T01:52:04.281Z,102396.03
2023-02-06T01:55:07.195Z,102400.16
2023-02-06T01:58:13.840Z,102393.94
2023-02-06T02:01:17.158Z,102412.22
2023-02-06T02:04:22.768Z,102374.53
2023-02-06T02:07:28.999Z,102399.34
2023-02-06T02:10:33.343Z,102371.03
2023-02-06T02:13:38.461Z,102399.34
2023-02-06T02:17:29.605Z,102406.84
2023-02-06T02:21:08.425Z,102381.91
2023-02-06T02:24:23.529Z,102380.19
2023-02-06T02:27:53.200Z,102392.25
2023-02-06T02:31:31.757Z,102386.03
2023-02-06T02:34:43.282Z,102362.94
2023-02-06T02:37:45.636Z,102391.22
2023-02-06T02:40:58.214Z,102399.31
2023-02-06T02:44:19.462Z,102406.81
2023-02-06T02:47:29.987Z,102395.38
2023-02-06T02:50:33.272Z,102380.16
2023-02-06T02:53:36.541Z,102368.13
2023-02-06T02:56:38.980Z,102403.28
2023-02-06T02:59:46.149Z,102366.25
2023-02-06T03:02:50.493Z,102402.66
2023-02-06T03:06:20.442Z,102404.31
2023-02-06T03:09:39.262Z,102376.63
2023-02-06T03:12:52.876Z,102413.66
2023-02-06T03:16:14.383Z,102388.09
2023-02-06T03:19:23.936Z,102414.31
2023-02-06T03:22:28.840Z,102421.78
2023-02-06T03:25:36.499Z,102389.34
2023-02-06T03:28:44.925Z,102399.78
2023-02-06T03:31:53.223Z,102398.09
2023-02-06T03:34:59.992Z,102413.06
2023-02-06T03:38:04.836Z,102420.97
2023-02-06T03:41:08.277Z,102401.00
2023-02-06T03:44:15.424Z,102420.53
2023-02-06T03:47:19.065Z,102392.66
2023-02-06T03:50:22.840Z,102410.16
2023-02-06T03:53:26.418Z,102426.56
2023-02-06T03:56:32.825Z,102424.06
2023-02-06T03:59:35.068Z,102417.63
2023-02-06T04:02:38.867Z,102389.72
2023-02-06T04:05:41.788Z,102420.06
2023-02-06T04:08:44.079Z,102419.66
2023-02-06T04:11:46.673Z,102393.47
2023-02-06T04:14:49.456Z,102412.00
2023-02-06T04:18:00.142Z,102407.84
2023-02-06T04:21:07.288Z,102375.19
2023-02-06T04:24:09.948Z,102376.84
2023-02-06T04:27:14.198Z,102423.03
2023-02-06T04:30:17.981Z,102413.44
2023-02-06T04:33:20.465Z,102417.59
2023-02-06T04:36:23.187Z,102410.13
2023-02-06T04:39:26.193Z,102388.47
2023-02-06T04:42:28.775Z,102416.13
2023-02-06T04:45:31.077Z,102421.75
2023-02-06T04:48:33.725Z,102396.34
2023-02-06T04:51:36.454Z,102390.53
2023-02-06T04:54:39.080Z,102427.16
2023-02-06T04:57:41.849Z,102388.22
2023-02-06T05:00:44.458Z,102436.09
2023-02-06T05:03:47.202Z,102424.22
2023-02-06T05:06:49.804Z,102420.69
2023-02-06T05:09:52.078Z,102433.78
2023-02-06T05:12:56.110Z,102400.47
2023-02-06T05:16:04.198Z,102425.88
2023-02-06T05:19:06.828Z,102411.31
2023-02-06T05:22:09.112Z,102398.41
2023-02-06T05:25:11.762Z,102434.63
2023-02-06T05:28:14.083Z,102426.75
2023-02-06T05:31:19.985Z,102397.53
2023-02-06T05:34:22.566Z,102432.53
2023-02-06T05:37:25.130Z,102426.94
2023-02-06T05:40:27.503Z,102405.44
2023-02-06T05:43:30.290Z,102438.34
2023-02-06T05:46:33.203Z,102423.72
2023-02-06T05:49:35.863Z,102417.88
2023-02-06T05:52:38.160Z,102416.25
2023-02-06T05:55:40.721Z,102453.69
2023-02-06T05:58:43.069Z,102427.88
2023-02-06T06:01:45.662Z,102400.41
2023-02-06T06:04:48.278Z,102444.13
2023-02-06T06:07:50.594Z,102439.97
2023-02-06T06:10:53.233Z,102440.19
2023-02-06T06:13:55.728Z,102447.50
2023-02-06T06:16:58.332Z,102412.94
2023-02-06T06:20:00.801Z,102447.50
2023-02-06T06:23:03.425Z,102438.38
2023-02-06T06:26:05.808Z,102406.13
2023-02-06T06:29:08.610Z,102443.00
2023-02-06T06:32:11.140Z,102430.31
2023-02-06T06:35:13.754Z,102404.72
2023-02-06T06:38:16.125Z,102430.13
2023-02-06T06:41:18.757Z,102413.66
2023-02-06T06:44:21.322Z,102402.66
2023-02-06T06:47:23.977Z,102401.81
2023-02-06T06:50:26.457Z,102417.63
2023-02-06T06:53:29.037Z,102440.50
2023-02-06T06:56:31.345Z,102437.59
2023-02-06T06:59:33.938Z,102434.31
2023-02-06T07:02:36.592Z,102434.50
2023-02-06T07:05:39.407Z,102437.22
2023-02-06T07:08:42.339Z,102438.88
2023-02-06T07:11:44.952Z,102435.75
2023-02-06T07:14:47.447Z,102400.19
2023-02-06T07:17:50.172Z,102432.44
2023-02-06T07:20:52.513Z,102428.69
2023-02-06T07:23:55.395Z,102436.78
2023-02-06T07:26:59.389Z,102413.06
2023-02-06T07:30:02.060Z,102449.28
2023-02-06T07:33:05.533Z,102437.00
2023-02-06T07:36:13.403Z,102399.97
2023-02-06T07:39:15.737Z,102452.41
2023-02-06T07:42:18.950Z,102457.63
2023-02-06T07:45:24.896Z,102452.22
2023-02-06T07:48:28.669Z,102434.72
2023-02-06T07:51:31.051Z,102426.56
2023-02-06T07:54:33.795Z,102444.03
2023-02-06T07:57:36.663Z,102401.75
2023-02-06T08:00:40.667Z,102457.88
2023-02-06T08:03:43.165Z,102451.00
2023-02-06T08:06:45.819Z,102455.12
2023-02-06T08:09:49.034Z,102455.03
2023-02-06T08:12:51.384Z,102443.66
2023-02-06T08:15:54.197Z,102455.56
2023-02-06T08:18:56.684Z,102443.22
2023-02-06T08:21:59.414Z,102418.22
2023-02-06T08:25:01.798Z,102419.41
2023-02-06T08:28:19.500Z,102451.59
2023-02-06T08:31:27.102Z,102446.78
2023-02-06T08:34:30.586Z,102445.00
2023-02-06T08:37:33.516Z,102406.41
2023-02-06T08:40:36.008Z,102430.00
2023-02-06T08:43:38.669Z,102373.38
2023-02-06T08:46:41.672Z,102452.97
2023-02-06T08:49:44.312Z,102447.06
2023-02-06T08:52:46.685Z,102410.66
2023-02-06T08:55:49.409Z,102429.94
2023-02-06T08:58:51.997Z,102427.53
2023-02-06T09:01:54.884Z,102426.75
2023-02-06T09:04:57.179Z,102436.66
2023-02-06T09:08:01.172Z,102424.03
2023-02-06T09:11:12.247Z,102413.97
2023-02-06T09:14:16.990Z,102418.34
2023-02-06T09:17:19.353Z,102413.44
2023-02-06T09:20:22.566Z,102446.50
2023-02-06T09:23:24.962Z,102431.62
2023-02-06T09:26:33.606Z,102442.56
2023-02-06T09:29:37.663Z,102437.38
2023-02-06T09:32:40.799Z,102418.28
2023-02-06T09:35:43.257Z,102416.19
2023-02-06T09:38:48.899Z,102429.69
2023-02-06T09:41:55.247Z,102442.59
2023-02-06T09:45:18.278Z,102422.53
2023-02-06T09:48:25.055Z,102443.22
2023-02-06T09:51:49.892Z,102428.25
2023-02-06T09:55:07.370Z,102437.97
2023-02-06T09:58:23.923Z,102431.88
2023-02-06T10:01:34.808Z,102433.03
2023-02-06T10:04:59.704Z,102431.62
2023-02-06T10:08:19.698Z,102429.69
2023-02-06T10:11:54.880Z,102432.38
2023-02-06T10:15:34.858Z,102425.47
2023-02-06T10:19:09.658Z,102421.03
2023-02-06T10:22:12.721Z,102417.66
2023-02-06T10:25:29.196Z,102405.00
2023-02-06T10:28:35.472Z,102404.38
2023-02-06T10:31:41.236Z,102375.31
2023-02-06T10:35:17.471Z,102391.78
2023-02-06T10:38:51.554Z,102403.97
2023-02-06T10:42:01.167Z,102379.56
2023-02-06T10:45:24.022Z,102397.53
2023-02-06T10:48:36.285Z,102393.41
2023-02-06T10:51:44.800Z,102380.75
2023-02-06T10:54:54.862Z,102354.91
2023-02-06T10:58:18.882Z,102350.19
2023-02-06T11:01:26.606Z,102334.28
2023-02-06T11:04:44.543Z,102351.31
2023-02-06T11:07:51.538Z,102360.94
2023-02-06T11:10:54.927Z,102363.97
2023-02-06T11:14:25.339Z,102362.34
2023-02-06T11:17:28.527Z,102359.59
2023-02-06T11:20:34.286Z,102367.78
2023-02-06T11:23:37.343Z,102366.69
2023-02-06T11:26:46.963Z,102336.47
2023-02-06T11:29:52.202Z,102339.75
2023-02-06T11:33:20.226Z,102348.00
2023-02-06T11:36:29.544Z,102342.53
2023-02-06T11:39:33.411Z,102307.87
2023-02-06T11:42:38.000Z,102335.56
2023-02-06T11:45:41.220Z,102302.84
2023-02-06T11:49:00.641Z,102327.00
2023-02-06T11:52:04.014Z,102320.88
2023-02-06T11:55:20.175Z,102290.41
2023-02-06T11:58:26.372Z,102299.91
2023-02-06T12:01:38.577Z,102283.81
2023-02-06T12:04:41.570Z,102274.50
2023-02-06T12:08:16.002Z,102303.19
2023-02-06T12:11:46.130Z,102287.78
2023-02-06T12:14:55.135Z,102291.47
2023-02-06T12:18:03.815Z,102280.81
2023-02-06T12:21:53.737Z,102286.09
2023-02-06T12:24:58.009Z,102291.25
2023-02-06T12:28:24.911Z,102277.91
2023-02-06T12:31:59.158Z,102249.81
2023-02-06T12:35:14.469Z,102274.78
2023-02-06T12:38:26.380Z,102265.38
2023-02-06T12:41:47.193Z,102262.75
2023-02-06T12:44:52.673Z,102271.16
2023-02-06T12:48:04.148Z,102270.72
2023-02-06T12:51:15.429Z,102248.16
2023-02-06T12:54:20.478Z,102274.59
2023-02-06T12:57:27.363Z,102269.56
2023-02-06T13:00:35.552Z,102262.59
2023-02-06T13:03:54.526Z,102268.38
2023-02-06T13:07:05.675Z,102258.28
2023-02-06T13:10:16.548Z,102227.97
2023-02-06T13:13:49.641Z,102237.03
2023-02-06T13:17:11.820Z,102256.87
2023-02-06T13:20:16.953Z,102241.59
2023-02-06T13:23:24.282Z,102251.72
2023-02-06T13:27:08.425Z,102224.72
2023-02-06T13:30:40.133Z,102261.91
2023-02-06T13:33:55.428Z,102250.75
2023-02-06T13:37:37.455Z,102246.06
2023-02-06T13:40:39.771Z,102269.94
2023-02-06T13:43:42.560Z,102266.06
2023-02-06T13:47:00.270Z,102266.91
2023-02-06T13:50:32.377Z,102267.31
2023-02-06T13:53:43.542Z,102263.25
2023-02-06T13:57:16.941Z,102273.41
2023-02-06T14:00:21.517Z,102269.72
2023-02-06T14:03:29.525Z,102277.41
2023-02-06T14:06:43.988Z,102283.44
2023-02-06T14:10:05.246Z,102287.31
2023-02-06T14:13:28.472Z,102297.56
2023-02-06T14:16:42.986Z,102289.19
2023-02-06T14:20:16.191Z,102297.03
2023-02-06T14:24:06.896Z,102280.16
2023-02-06T14:27:37.367Z,102298.75
2023-02-06T14:30:59.080Z,102299.12
2023-02-06T14:34:38.859Z,102298.91
2023-02-06T14:38:09.647Z,102265.41
2023-02-06T14:41:12.352Z,102300.16
2023-02-06T14:44:21.433Z,102295.97
2023-02-06T14:47:33.076Z,102288.16
2023-02-06T14:50:40.497Z,102298.13
2023-02-06T14:53:52.642Z,102284.94
2023-02-06T14:56:56.933Z,102296.88
2023-02-06T15:00:06.432Z,102275.31
2023-02-06T15:03:16.565Z,102269.12
2023-02-06T15:06:34.479Z,102269.63
2023-02-06T15:09:43.983Z,102275.38
2023-02-06T15:12:53.824Z,102280.50
2023-02-06T15:15:57.101Z,102311.59
2023-02-06T15:19:17.252Z,102291.41
2023-02-06T15:22:29.814Z,102292.78
2023-02-06T15:26:10.336Z,102321.16
2023-02-06T15:29:26.988Z,102322.88
2023-02-06T15:32:33.313Z,102289.94
2023-02-06T15:35:41.436Z,102323.22
2023-02-06T15:38:43.911Z,102276.12
2023-02-06T15:41:51.418Z,102319.00
2023-02-06T15:44:54.157Z,102309.47
2023-02-06T15:47:58.749Z,102321.97
2023-02-06T15:51:22.258Z,102306.62
2023-02-06T15:54:27.131Z,102334.41
2023-02-06T15:57:34.044Z,102309.19
2023-02-06T16:00:37.792Z,102297.63
2023-02-06T16:03:41.657Z,102318.34
2023-02-06T16:06:58.699Z,102322.63
2023-02-06T16:10:04.266Z,102342.97
2023-02-06T16:13:17.130Z,102346.44
2023-02-06T16:16:22.895Z,102336.09
2023-02-06T16:19:40.869Z,102343.50
2023-02-06T16:22:43.808Z,102369.47
2023-02-06T16:25:49.158Z,102340.19
2023-02-06T16:28:57.294Z,102368.19
2023-02-06T16:32:02.662Z,102361.34
2023-02-06T16:35:05.672Z,102370.09
2023-02-06T16:38:10.260Z,102369.91
2023-02-06T16:41:26.582Z,102378.53
2023-02-06T16:44:43.799Z,102392.81
2023-02-06T16:47:47.436Z,102355.81
2023-02-06T16:50:49.846Z,102385.72
2023-02-06T16:53:53.040Z,102393.84
2023-02-06T16:56:57.503Z,102384.09
2023-02-06T17:00:00.566Z,102378.72
2023-02-06T17:03:03.076Z,102356.69
2023-02-06T17:06:06.590Z,102361.94
2023-02-06T17:09:11.058Z,102373.28
2023-02-06T17:12:16.720Z,102392.84
2023-02-06T17:15:19.797Z,102398.50
2023-02-06T17:18:23.946Z,102399.53
2023-02-06T17:21:28.351Z,102361.94
2023-02-06T17:24:31.007Z,102362.59
2023-02-06T17:27:33.379Z,102371.03
2023-02-06T17:30:38.162Z,102387.44
2023-02-06T17:33:40.822Z,102398.38
2023-02-06T17:36:45.228Z,102384.84
2023-02-06T17:39:51.949Z,102388.78
2023-02-06T17:42:55.431Z,102392.97
2023-02-06T17:45:57.776Z,102372.22
2023-02-06T17:49:00.428Z,102392.37
2023-02-06T17:52:02.914Z,102380.62
2023-02-06T17:55:05.778Z,102394.38
2023-02-06T17:58:08.457Z,102372.25
2023-02-06T18:01:17.583Z,102405.59
2023-02-06T18:04:21.371Z,102378.53
2023-02-06T18:07:23.683Z,102410.59
2023-02-06T18:10:26.800Z,102412.47
2023-02-06T18:13:29.143Z,102394.88
2023-02-06T18:16:31.981Z,102425.19
2023-02-06T18:19:41.785Z,102393.59
2023-02-06T18:22:45.040Z,102400.28
2023-02-06T18:25:47.478Z,102403.75
2023-02-06T18:28:50.228Z,102398.31
2023-02-06T18:31:52.653Z,102397.25
2023-02-06T18:34:55.626Z,102431.78
2023-02-06T18:37:57.986Z,102401.12
2023-02-06T18:41:05.849Z,102424.78
2023-02-06T18:44:09.891Z,102429.00
2023-02-06T18:47:14.802Z,102429.84
2023-02-06T18:50:20.384Z,102432.38
2023-02-06T18:53:23.089Z,102431.28
2023-02-06T18:56:25.985Z,102398.84
2023-02-06T18:59:29.141Z,102411.97
2023-02-06T19:02:31.599Z,102438.16
2023-02-06T19:05:37.468Z,102442.19
2023-02-06T19:08:42.890Z,102428.31
2023-02-06T19:12:32.145Z,102434.53
2023-02-06T19:15:49.260Z,102417.28
2023-02-06T19:18:57.886Z,102447.41
2023-02-06T19:22:05.172Z,102447.84
2023-02-06T19:25:12.600Z,102427.94
2023-02-06T19:28:16.812Z,102442.09
2023-02-06T19:31:26.493Z,102458.53
2023-02-06T19:34:28.986Z,102475.41
2023-02-06T19:37:31.886Z,102449.81
2023-02-06T19:40:36.211Z,102481.22
2023-02-06T19:43:40.182Z,102482.88
2023-02-06T19:46:42.704Z,102486.63
2023-02-06T19:49:45.442Z,102465.44
2023-02-06T19:52:47.982Z,102489.81
2023-02-06T19:55:50.696Z,102487.09
2023-02-06T19:58:59.735Z,102465.50
2023-02-06T20:02:02.959Z,102469.66
2023-02-06T20:05:05.902Z,102504.63
2023-02-06T20:08:08.546Z,102499.84
2023-02-06T20:11:20.193Z,102501.28
2023-02-06T20:14:23.952Z,102510.03
2023-02-06T20:17:27.012Z,102497.97
2023-02-06T20:20:29.397Z,102517.78
2023-02-06T20:23:37.501Z,102492.59
2023-02-06T20:26:42.631Z,102527.97
2023-02-06T20:29:46.660Z,102496.94
2023-02-06T20:32:49.223Z,102520.88
2023-02-06T20:35:51.915Z,102524.66
2023-02-06T20:38:57.422Z,102529.00
2023-02-06T20:42:00.565Z,102532.78
2023-02-06T20:45:03.052Z,102524.25
2023-02-06T20:48:05.901Z,102535.69
2023-02-06T20:51:08.234Z,102544.66
2023-02-06T20:54:12.331Z,102503.84
2023-02-06T20:57:15.460Z,102542.78
2023-02-06T21:00:18.388Z,102532.13
2023-02-06T21:03:21.106Z,102541.53
2023-02-06T21:06:24.219Z,102514.66
2023-02-06T21:09:26.819Z,102534.63
2023-02-06T21:12:29.558Z,102555.06
2023-02-06T21:15:31.950Z,102513.78
2023-02-06T21:18:34.711Z,102486.75
2023-02-06T21:21:37.597Z,102561.25
2023-02-06T21:24:40.261Z,102568.38
2023-02-06T21:27:42.610Z,102566.28
2023-02-06T21:30:46.015Z,102540.66
2023-02-06T21:33:49.539Z,102552.97
2023-02-06T21:36:53.804Z,102544.00
2023-02-06T21:39:56.076Z,102557.34
2023-02-06T21:42:58.646Z,102551.31
2023-02-06T21:46:01.305Z,102556.31
2023-02-06T21:49:06.366Z,102523.00
2023-02-06T21:52:08.704Z,102561.91
2023-02-06T21:55:11.739Z,102554.63
2023-02-06T21:58:17.305Z,102531.72
2023-02-06T22:01:21.875Z,102563.78
2023-02-06T22:04:24.583Z,102566.69
2023-02-06T22:07:26.935Z,102560.06
2023-02-06T22:10:29.628Z,102536.72
2023-02-06T22:13:31.935Z,102571.28
2023-02-06T22:16:34.673Z,102540.44
2023-02-06T22:19:37.791Z,102569.59
2023-02-06T22:22:41.186Z,102550.00
2023-02-06T22:25:50.124Z,102558.34
2023-02-06T22:28:52.876Z,102580.03
2023-02-06T22:31:55.141Z,102546.69
2023-02-06T22:35:01.032Z,102576.69
2023-02-06T22:38:03.373Z,102550.47
2023-02-06T22:41:08.301Z,102553.38
2023-02-06T22:44:12.540Z,102582.31
2023-02-06T22:47:15.228Z,102572.53
2023-02-06T22:50:17.696Z,102584.41
2023-02-06T22:53:33.824Z,102537.94
2023-02-06T22:56:38.324Z,102543.78
2023-02-06T22:59:41.020Z,102568.78
2023-02-06T23:02:43.679Z,102577.09
2023-02-06T23:05:46.426Z,102558.56
2023-02-06T23:08:49.109Z,102583.53
2023-02-06T23:11:52.876Z,102581.44
2023-02-06T23:14:56.377Z,102583.13
2023-02-06T23:17:59.007Z,102573.72
2023-02-06T23:21:10.876Z,102564.38
2023-02-06T23:24:14.940Z,102561.66
2023-02-06T23:27:19.659Z,102590.00
2023-02-06T23:30:22.297Z,102588.72
2023-02-06T23:33:25.287Z,102555.37
2023-02-06T23:36:28.908Z,102565.94
2023-02-06T23:39:31.270Z,102591.63
2023-02-06T23:42:34.630Z,102562.25
2023-02-06T23:45:37.555Z,102549.75
2023-02-06T23:48:40.690Z,102553.28
2023-02-06T23:51:43.120Z,102550.38
2023-02-06T23:54:45.748Z,102586.22
2023-02-06T23:57:48.182Z,102559.53
